sensor_id;sensor_type;location;lat;lon;timestamp;P1;durP1;ratioP1;P2;durP2;ratioP2
65463;SDS011;52063;45.110;9.870;2024-02-26T00:02:13;9.35;;;5.60;;
65463;SDS011;52063;45.110;9.870;2024-02-26T00:04:39;9.90;;;5.73;;
65463;SDS011;52063;45.110;9.870;2024-02-26T00:07:05;12.27;;;5.80;;
65463;SDS011;52063;45.110;9.870;2024-02-26T00:09:30;10.20;;;5.60;;
65463;SDS011;52063;45.110;9.870;2024-02-26T00:11:56;8.43;;;5.35;;
65463;SDS011;52063;45.110;9.870;2024-02-26T00:14:23;9.23;;;5.57;;
65463;SDS011;52063;45.110;9.870;2024-02-26T00:16:48;8.98;;;5.18;;
65463;SDS011;52063;45.110;9.870;2024-02-26T00:19:14;10.63;;;5.23;;
65463;SDS011;52063;45.110;9.870;2024-02-26T00:21:40;8.23;;;5.07;;
65463;SDS011;52063;45.110;9.870;2024-02-26T00:24:07;9.40;;;5.10;;
65463;SDS011;52063;45.110;9.870;2024-02-26T00:26:33;8.20;;;5.22;;
65463;SDS011;52063;45.110;9.870;2024-02-26T00:28:58;8.80;;;5.10;;
65463;SDS011;52063;45.110;9.870;2024-02-26T00:31:23;7.60;;;4.77;;
65463;SDS011;52063;45.110;9.870;2024-02-26T00:33:49;8.07;;;5.25;;
65463;SDS011;52063;45.110;9.870;2024-02-26T00:36:15;8.17;;;4.90;;
65463;SDS011;52063;45.110;9.870;2024-02-26T00:38:40;7.80;;;4.73;;
65463;SDS011;52063;45.110;9.870;2024-02-26T00:41:06;9.18;;;4.80;;
65463;SDS011;52063;45.110;9.870;2024-02-26T00:43:31;10.23;;;5.20;;
65463;SDS011;52063;45.110;9.870;2024-02-26T00:45:56;7.77;;;4.83;;
65463;SDS011;52063;45.110;9.870;2024-02-26T00:48:22;8.75;;;4.85;;
65463;SDS011;52063;45.110;9.870;2024-02-26T00:50:50;7.65;;;4.65;;
65463;SDS011;52063;45.110;9.870;2024-02-26T00:53:16;7.70;;;4.77;;
65463;SDS011;52063;45.110;9.870;2024-02-26T00:55:42;8.23;;;4.82;;
65463;SDS011;52063;45.110;9.870;2024-02-26T00:58:07;9.07;;;5.10;;
65463;SDS011;52063;45.110;9.870;2024-02-26T01:00:33;7.07;;;4.50;;
65463;SDS011;52063;45.110;9.870;2024-02-26T01:02:58;10.30;;;4.70;;
65463;SDS011;52063;45.110;9.870;2024-02-26T01:05:25;6.43;;;4.30;;
65463;SDS011;52063;45.110;9.870;2024-02-26T01:07:50;7.90;;;4.60;;
65463;SDS011;52063;45.110;9.870;2024-02-26T01:10:16;6.77;;;4.50;;
65463;SDS011;52063;45.110;9.870;2024-02-26T01:12:41;8.43;;;4.70;;
65463;SDS011;52063;45.110;9.870;2024-02-26T01:15:07;5.97;;;4.30;;
65463;SDS011;52063;45.110;9.870;2024-02-26T01:17:33;7.53;;;4.20;;
65463;SDS011;52063;45.110;9.870;2024-02-26T01:19:59;7.43;;;4.43;;
65463;SDS011;52063;45.110;9.870;2024-02-26T01:22:24;7.30;;;4.30;;
65463;SDS011;52063;45.110;9.870;2024-02-26T01:24:50;7.53;;;4.30;;
65463;SDS011;52063;45.110;9.870;2024-02-26T01:27:15;7.18;;;4.38;;
65463;SDS011;52063;45.110;9.870;2024-02-26T01:29:41;7.10;;;4.57;;
65463;SDS011;52063;45.110;9.870;2024-02-26T01:32:06;6.57;;;4.40;;
65463;SDS011;52063;45.110;9.870;2024-02-26T01:34:32;6.17;;;4.27;;
65463;SDS011;52063;45.110;9.870;2024-02-26T01:36:58;5.80;;;4.10;;
65463;SDS011;52063;45.110;9.870;2024-02-26T01:39:24;7.35;;;3.97;;
65463;SDS011;52063;45.110;9.870;2024-02-26T01:41:49;7.93;;;3.80;;
65463;SDS011;52063;45.110;9.870;2024-02-26T01:44:15;7.03;;;4.20;;
65463;SDS011;52063;45.110;9.870;2024-02-26T01:46:40;5.90;;;3.75;;
65463;SDS011;52063;45.110;9.870;2024-02-26T01:49:06;5.37;;;3.30;;
65463;SDS011;52063;45.110;9.870;2024-02-26T01:51:34;5.80;;;3.92;;
65463;SDS011;52063;45.110;9.870;2024-02-26T01:54:00;6.82;;;4.25;;
65463;SDS011;52063;45.110;9.870;2024-02-26T01:56:27;7.05;;;4.35;;
65463;SDS011;52063;45.110;9.870;2024-02-26T01:58:55;8.03;;;3.70;;
65463;SDS011;52063;45.110;9.870;2024-02-26T02:01:22;4.53;;;3.60;;
65463;SDS011;52063;45.110;9.870;2024-02-26T02:03:48;6.00;;;3.80;;
65463;SDS011;52063;45.110;9.870;2024-02-26T02:06:14;4.83;;;3.80;;
65463;SDS011;52063;45.110;9.870;2024-02-26T02:08:39;7.18;;;4.07;;
65463;SDS011;52063;45.110;9.870;2024-02-26T02:11:05;5.87;;;4.30;;
65463;SDS011;52063;45.110;9.870;2024-02-26T02:13:31;5.65;;;4.00;;
65463;SDS011;52063;45.110;9.870;2024-02-26T02:15:57;6.23;;;4.13;;
65463;SDS011;52063;45.110;9.870;2024-02-26T02:18:22;5.03;;;3.50;;
65463;SDS011;52063;45.110;9.870;2024-02-26T02:20:48;5.68;;;3.63;;
65463;SDS011;52063;45.110;9.870;2024-02-26T02:23:13;5.30;;;3.63;;
65463;SDS011;52063;45.110;9.870;2024-02-26T02:25:39;6.00;;;3.60;;
65463;SDS011;52063;45.110;9.870;2024-02-26T02:28:04;4.83;;;3.73;;
65463;SDS011;52063;45.110;9.870;2024-02-26T02:30:31;4.45;;;3.75;;
65463;SDS011;52063;45.110;9.870;2024-02-26T02:32:58;5.57;;;3.90;;
65463;SDS011;52063;45.110;9.870;2024-02-26T02:35:24;4.20;;;3.50;;
65463;SDS011;52063;45.110;9.870;2024-02-26T02:37:51;5.00;;;3.63;;
65463;SDS011;52063;45.110;9.870;2024-02-26T02:40:17;5.65;;;3.40;;
65463;SDS011;52063;45.110;9.870;2024-02-26T02:42:43;5.80;;;3.70;;
65463;SDS011;52063;45.110;9.870;2024-02-26T02:45:09;4.95;;;3.42;;
65463;SDS011;52063;45.110;9.870;2024-02-26T02:47:37;6.67;;;3.27;;
65463;SDS011;52063;45.110;9.870;2024-02-26T02:50:03;5.40;;;3.60;;
65463;SDS011;52063;45.110;9.870;2024-02-26T02:52:29;7.25;;;3.65;;
65463;SDS011;52063;45.110;9.870;2024-02-26T02:54:54;6.10;;;3.53;;
65463;SDS011;52063;45.110;9.870;2024-02-26T02:57:20;4.18;;;3.47;;
65463;SDS011;52063;45.110;9.870;2024-02-26T02:59:46;4.73;;;3.30;;
65463;SDS011;52063;45.110;9.870;2024-02-26T03:02:11;5.15;;;3.40;;
65463;SDS011;52063;45.110;9.870;2024-02-26T03:04:37;5.13;;;3.47;;
65463;SDS011;52063;45.110;9.870;2024-02-26T03:07:02;3.97;;;3.30;;
65463;SDS011;52063;45.110;9.870;2024-02-26T03:09:28;6.17;;;3.60;;
65463;SDS011;52063;45.110;9.870;2024-02-26T03:11:53;4.80;;;3.60;;
65463;SDS011;52063;45.110;9.870;2024-02-26T03:14:19;5.90;;;3.53;;
65463;SDS011;52063;45.110;9.870;2024-02-26T03:16:45;4.45;;;3.60;;
65463;SDS011;52063;45.110;9.870;2024-02-26T03:19:10;5.87;;;3.53;;
65463;SDS011;52063;45.110;9.870;2024-02-26T03:21:35;4.87;;;3.50;;
65463;SDS011;52063;45.110;9.870;2024-02-26T03:24:01;4.32;;;3.20;;
65463;SDS011;52063;45.110;9.870;2024-02-26T03:26:27;3.93;;;3.13;;
65463;SDS011;52063;45.110;9.870;2024-02-26T03:28:52;4.80;;;3.28;;
65463;SDS011;52063;45.110;9.870;2024-02-26T03:31:18;4.20;;;3.43;;
65463;SDS011;52063;45.110;9.870;2024-02-26T03:33:44;4.40;;;3.45;;
65463;SDS011;52063;45.110;9.870;2024-02-26T03:36:09;4.07;;;3.00;;
65463;SDS011;52063;45.110;9.870;2024-02-26T03:38:35;4.70;;;3.47;;
65463;SDS011;52063;45.110;9.870;2024-02-26T03:41:00;3.80;;;3.10;;
65463;SDS011;52063;45.110;9.870;2024-02-26T03:43:25;4.38;;;3.15;;
65463;SDS011;52063;45.110;9.870;2024-02-26T03:45:51;4.93;;;3.60;;
65463;SDS011;52063;45.110;9.870;2024-02-26T03:48:17;5.67;;;3.17;;
65463;SDS011;52063;45.110;9.870;2024-02-26T03:50:42;4.37;;;3.37;;
65463;SDS011;52063;45.110;9.870;2024-02-26T03:53:07;3.73;;;3.00;;
65463;SDS011;52063;45.110;9.870;2024-02-26T03:55:34;4.20;;;3.00;;
65463;SDS011;52063;45.110;9.870;2024-02-26T03:58:00;4.80;;;3.15;;
65463;SDS011;52063;45.110;9.870;2024-02-26T04:00:25;4.63;;;3.00;;
65463;SDS011;52063;45.110;9.870;2024-02-26T04:02:51;4.20;;;3.13;;
65463;SDS011;52063;45.110;9.870;2024-02-26T04:05:16;3.60;;;2.90;;
65463;SDS011;52063;45.110;9.870;2024-02-26T04:07:42;3.50;;;3.20;;
65463;SDS011;52063;45.110;9.870;2024-02-26T04:10:11;3.87;;;3.00;;
65463;SDS011;52063;45.110;9.870;2024-02-26T04:12:40;4.75;;;3.03;;
65463;SDS011;52063;45.110;9.870;2024-02-26T04:15:07;5.28;;;3.20;;
65463;SDS011;52063;45.110;9.870;2024-02-26T04:17:33;5.80;;;3.60;;
65463;SDS011;52063;45.110;9.870;2024-02-26T04:19:58;4.03;;;3.10;;
65463;SDS011;52063;45.110;9.870;2024-02-26T04:22:24;3.77;;;3.00;;
65463;SDS011;52063;45.110;9.870;2024-02-26T04:24:49;3.63;;;2.85;;
65463;SDS011;52063;45.110;9.870;2024-02-26T04:27:15;4.07;;;3.13;;
65463;SDS011;52063;45.110;9.870;2024-02-26T04:29:40;4.93;;;3.20;;
65463;SDS011;52063;45.110;9.870;2024-02-26T04:32:06;4.22;;;2.97;;
65463;SDS011;52063;45.110;9.870;2024-02-26T04:34:31;4.13;;;3.20;;
65463;SDS011;52063;45.110;9.870;2024-02-26T04:36:57;4.03;;;2.80;;
65463;SDS011;52063;45.110;9.870;2024-02-26T04:39:22;3.20;;;2.80;;
65463;SDS011;52063;45.110;9.870;2024-02-26T04:41:48;4.13;;;3.10;;
65463;SDS011;52063;45.110;9.870;2024-02-26T04:44:13;5.50;;;3.10;;
65463;SDS011;52063;45.110;9.870;2024-02-26T04:46:39;3.40;;;2.60;;
65463;SDS011;52063;45.110;9.870;2024-02-26T04:49:05;3.37;;;2.70;;
65463;SDS011;52063;45.110;9.870;2024-02-26T04:51:31;3.58;;;2.95;;
65463;SDS011;52063;45.110;9.870;2024-02-26T04:53:56;4.37;;;2.97;;
65463;SDS011;52063;45.110;9.870;2024-02-26T04:56:22;3.63;;;2.67;;
65463;SDS011;52063;45.110;9.870;2024-02-26T04:58:47;4.57;;;2.70;;
65463;SDS011;52063;45.110;9.870;2024-02-26T05:01:13;3.20;;;2.83;;
65463;SDS011;52063;45.110;9.870;2024-02-26T05:03:38;3.57;;;2.60;;
65463;SDS011;52063;45.110;9.870;2024-02-26T05:06:04;3.53;;;2.90;;
65463;SDS011;52063;45.110;9.870;2024-02-26T05:08:30;4.35;;;2.70;;
65463;SDS011;52063;45.110;9.870;2024-02-26T05:10:56;3.15;;;2.50;;
65463;SDS011;52063;45.110;9.870;2024-02-26T05:13:22;3.70;;;3.03;;
65463;SDS011;52063;45.110;9.870;2024-02-26T05:15:47;3.38;;;2.80;;
65463;SDS011;52063;45.110;9.870;2024-02-26T05:18:15;3.53;;;2.87;;
65463;SDS011;52063;45.110;9.870;2024-02-26T05:20:40;3.50;;;2.80;;
65463;SDS011;52063;45.110;9.870;2024-02-26T05:23:06;5.60;;;3.20;;
65463;SDS011;52063;45.110;9.870;2024-02-26T05:25:31;3.20;;;2.50;;
65463;SDS011;52063;45.110;9.870;2024-02-26T05:27:57;3.80;;;2.83;;
65463;SDS011;52063;45.110;9.870;2024-02-26T05:30:22;3.55;;;2.83;;
65463;SDS011;52063;45.110;9.870;2024-02-26T05:32:48;3.40;;;2.73;;
65463;SDS011;52063;45.110;9.870;2024-02-26T05:35:13;3.33;;;2.70;;
65463;SDS011;52063;45.110;9.870;2024-02-26T05:37:40;3.08;;;2.67;;
65463;SDS011;52063;45.110;9.870;2024-02-26T05:40:05;4.13;;;2.77;;
65463;SDS011;52063;45.110;9.870;2024-02-26T05:42:31;4.07;;;2.67;;
65463;SDS011;52063;45.110;9.870;2024-02-26T05:44:57;3.33;;;2.60;;
65463;SDS011;52063;45.110;9.870;2024-02-26T05:47:23;3.33;;;2.70;;
65463;SDS011;52063;45.110;9.870;2024-02-26T05:49:48;4.28;;;2.72;;
65463;SDS011;52063;45.110;9.870;2024-02-26T05:52:14;3.07;;;2.40;;
65463;SDS011;52063;45.110;9.870;2024-02-26T05:54:39;3.70;;;2.77;;
65463;SDS011;52063;45.110;9.870;2024-02-26T05:57:05;2.80;;;2.20;;
65463;SDS011;52063;45.110;9.870;2024-02-26T05:59:30;3.10;;;2.50;;
65463;SDS011;52063;45.110;9.870;2024-02-26T06:01:56;2.63;;;2.43;;
65463;SDS011;52063;45.110;9.870;2024-02-26T06:04:21;3.38;;;2.22;;
65463;SDS011;52063;45.110;9.870;2024-02-26T06:06:47;3.43;;;2.70;;
65463;SDS011;52063;45.110;9.870;2024-02-26T06:09:12;3.13;;;2.40;;
65463;SDS011;52063;45.110;9.870;2024-02-26T06:11:38;3.60;;;2.33;;
65463;SDS011;52063;45.110;9.870;2024-02-26T06:14:04;3.20;;;2.40;;
65463;SDS011;52063;45.110;9.870;2024-02-26T06:16:30;2.83;;;2.53;;
65463;SDS011;52063;45.110;9.870;2024-02-26T06:18:55;3.43;;;2.63;;
65463;SDS011;52063;45.110;9.870;2024-02-26T06:21:21;2.70;;;2.40;;
65463;SDS011;52063;45.110;9.870;2024-02-26T06:23:47;4.65;;;2.35;;
65463;SDS011;52063;45.110;9.870;2024-02-26T06:26:13;2.87;;;2.10;;
65463;SDS011;52063;45.110;9.870;2024-02-26T06:28:38;2.83;;;2.33;;
65463;SDS011;52063;45.110;9.870;2024-02-26T06:31:05;2.90;;;2.60;;
65463;SDS011;52063;45.110;9.870;2024-02-26T06:33:31;9.32;;;2.72;;
65463;SDS011;52063;45.110;9.870;2024-02-26T06:35:57;2.63;;;2.20;;
65463;SDS011;52063;45.110;9.870;2024-02-26T06:38:22;3.43;;;2.63;;
65463;SDS011;52063;45.110;9.870;2024-02-26T06:40:48;2.30;;;2.10;;
65463;SDS011;52063;45.110;9.870;2024-02-26T06:43:13;4.33;;;2.57;;
65463;SDS011;52063;45.110;9.870;2024-02-26T06:45:39;2.90;;;2.43;;
65463;SDS011;52063;45.110;9.870;2024-02-26T06:48:04;3.00;;;2.27;;
65463;SDS011;52063;45.110;9.870;2024-02-26T06:50:30;2.63;;;2.20;;
65463;SDS011;52063;45.110;9.870;2024-02-26T06:52:56;2.53;;;1.97;;
65463;SDS011;52063;45.110;9.870;2024-02-26T06:55:21;2.55;;;2.00;;
65463;SDS011;52063;45.110;9.870;2024-02-26T06:57:47;2.57;;;2.27;;
65463;SDS011;52063;45.110;9.870;2024-02-26T07:00:12;2.77;;;2.10;;
65463;SDS011;52063;45.110;9.870;2024-02-26T07:02:41;2.97;;;2.05;;
65463;SDS011;52063;45.110;9.870;2024-02-26T07:05:07;2.92;;;2.30;;
65463;SDS011;52063;45.110;9.870;2024-02-26T07:07:33;2.50;;;2.15;;
65463;SDS011;52063;45.110;9.870;2024-02-26T07:09:58;2.63;;;2.40;;
65463;SDS011;52063;45.110;9.870;2024-02-26T07:12:24;3.30;;;2.17;;
65463;SDS011;52063;45.110;9.870;2024-02-26T07:14:49;3.70;;;2.22;;
65463;SDS011;52063;45.110;9.870;2024-02-26T07:17:15;3.03;;;2.47;;
65463;SDS011;52063;45.110;9.870;2024-02-26T07:19:41;3.10;;;2.60;;
65463;SDS011;52063;45.110;9.870;2024-02-26T07:22:07;3.70;;;2.22;;
65463;SDS011;52063;45.110;9.870;2024-02-26T07:24:33;2.40;;;2.20;;
65463;SDS011;52063;45.110;9.870;2024-02-26T07:26:58;2.27;;;2.00;;
65463;SDS011;52063;45.110;9.870;2024-02-26T07:29:24;2.53;;;2.03;;
65463;SDS011;52063;45.110;9.870;2024-02-26T07:31:50;2.40;;;2.20;;
65463;SDS011;52063;45.110;9.870;2024-02-26T07:34:15;2.00;;;1.57;;
65463;SDS011;52063;45.110;9.870;2024-02-26T07:36:41;2.70;;;2.50;;
65463;SDS011;52063;45.110;9.870;2024-02-26T07:39:06;2.43;;;1.90;;
65463;SDS011;52063;45.110;9.870;2024-02-26T07:41:32;2.60;;;2.07;;
65463;SDS011;52063;45.110;9.870;2024-02-26T07:43:58;2.28;;;2.05;;
65463;SDS011;52063;45.110;9.870;2024-02-26T07:46:23;2.87;;;1.90;;
65463;SDS011;52063;45.110;9.870;2024-02-26T07:48:48;2.67;;;2.10;;
65463;SDS011;52063;45.110;9.870;2024-02-26T07:51:14;2.37;;;2.07;;
65463;SDS011;52063;45.110;9.870;2024-02-26T07:53:40;2.90;;;2.08;;
65463;SDS011;52063;45.110;9.870;2024-02-26T07:56:06;2.13;;;1.93;;
65463;SDS011;52063;45.110;9.870;2024-02-26T07:58:32;2.67;;;2.00;;
65463;SDS011;52063;45.110;9.870;2024-02-26T08:00:58;2.28;;;2.08;;
65463;SDS011;52063;45.110;9.870;2024-02-26T08:03:24;2.20;;;2.00;;
65463;SDS011;52063;45.110;9.870;2024-02-26T08:05:50;2.30;;;2.10;;
65463;SDS011;52063;45.110;9.870;2024-02-26T08:08:16;4.47;;;3.73;;
65463;SDS011;52063;45.110;9.870;2024-02-26T08:10:41;5.55;;;4.03;;
65463;SDS011;52063;45.110;9.870;2024-02-26T08:13:07;7.33;;;6.03;;
65463;SDS011;52063;45.110;9.870;2024-02-26T08:15:32;14.53;;;6.20;;
65463;SDS011;52063;45.110;9.870;2024-02-26T08:18:04;8.10;;;5.63;;
65463;SDS011;52063;45.110;9.870;2024-02-26T08:20:30;11.35;;;7.20;;
65463;SDS011;52063;45.110;9.870;2024-02-26T08:22:56;8.40;;;5.83;;
65463;SDS011;52063;45.110;9.870;2024-02-26T08:25:22;9.25;;;5.93;;
65463;SDS011;52063;45.110;9.870;2024-02-26T08:27:48;7.75;;;5.63;;
65463;SDS011;52063;45.110;9.870;2024-02-26T08:30:15;9.30;;;5.13;;
65463;SDS011;52063;45.110;9.870;2024-02-26T08:32:45;11.88;;;5.30;;
65463;SDS011;52063;45.110;9.870;2024-02-26T08:35:12;7.72;;;5.00;;
65463;SDS011;52063;45.110;9.870;2024-02-26T08:37:38;7.60;;;5.40;;
65463;SDS011;52063;45.110;9.870;2024-02-26T08:40:04;8.83;;;5.37;;
65463;SDS011;52063;45.110;9.870;2024-02-26T08:42:30;7.40;;;5.25;;
65463;SDS011;52063;45.110;9.870;2024-02-26T08:44:56;10.30;;;4.50;;
65463;SDS011;52063;45.110;9.870;2024-02-26T08:47:21;7.20;;;4.60;;
65463;SDS011;52063;45.110;9.870;2024-02-26T08:49:46;7.43;;;4.63;;
65463;SDS011;52063;45.110;9.870;2024-02-26T08:52:12;8.60;;;4.18;;
65463;SDS011;52063;45.110;9.870;2024-02-26T08:54:38;9.70;;;4.70;;
65463;SDS011;52063;45.110;9.870;2024-02-26T08:57:04;7.13;;;4.30;;
65463;SDS011;52063;45.110;9.870;2024-02-26T08:59:30;6.05;;;4.30;;
65463;SDS011;52063;45.110;9.870;2024-02-26T09:01:56;7.60;;;4.80;;
65463;SDS011;52063;45.110;9.870;2024-02-26T09:04:22;6.68;;;4.40;;
65463;SDS011;52063;45.110;9.870;2024-02-26T09:06:47;9.07;;;4.20;;
65463;SDS011;52063;45.110;9.870;2024-02-26T09:09:14;6.78;;;4.28;;
65463;SDS011;52063;45.110;9.870;2024-02-26T09:11:39;4.95;;;3.75;;
65463;SDS011;52063;45.110;9.870;2024-02-26T09:14:05;7.33;;;4.43;;
65463;SDS011;52063;45.110;9.870;2024-02-26T09:16:31;6.47;;;4.15;;
65463;SDS011;52063;45.110;9.870;2024-02-26T09:18:56;5.00;;;3.77;;
65463;SDS011;52063;45.110;9.870;2024-02-26T09:21:22;6.33;;;3.60;;
65463;SDS011;52063;45.110;9.870;2024-02-26T09:23:49;5.55;;;3.53;;
65463;SDS011;52063;45.110;9.870;2024-02-26T09:26:15;3.80;;;3.35;;
65463;SDS011;52063;45.110;9.870;2024-02-26T09:28:41;11.07;;;3.95;;
65463;SDS011;52063;45.110;9.870;2024-02-26T09:31:07;5.50;;;3.50;;
65463;SDS011;52063;45.110;9.870;2024-02-26T09:33:32;6.43;;;4.00;;
65463;SDS011;52063;45.110;9.870;2024-02-26T09:35:58;5.15;;;3.72;;
65463;SDS011;52063;45.110;9.870;2024-02-26T09:38:26;7.47;;;3.70;;
65463;SDS011;52063;45.110;9.870;2024-02-26T09:40:56;3.60;;;3.20;;
65463;SDS011;52063;45.110;9.870;2024-02-26T09:43:22;6.17;;;3.43;;
65463;SDS011;52063;45.110;9.870;2024-02-26T09:45:51;7.57;;;3.30;;
65463;SDS011;52063;45.110;9.870;2024-02-26T09:48:18;5.00;;;3.60;;
65463;SDS011;52063;45.110;9.870;2024-02-26T09:50:45;6.00;;;3.17;;
65463;SDS011;52063;45.110;9.870;2024-02-26T09:53:11;5.10;;;3.03;;
65463;SDS011;52063;45.110;9.870;2024-02-26T09:55:37;6.00;;;3.00;;
65463;SDS011;52063;45.110;9.870;2024-02-26T09:58:04;4.95;;;3.25;;
65463;SDS011;52063;45.110;9.870;2024-02-26T10:00:31;5.57;;;3.60;;
65463;SDS011;52063;45.110;9.870;2024-02-26T10:03:03;4.67;;;3.23;;
65463;SDS011;52063;45.110;9.870;2024-02-26T10:05:30;6.03;;;3.13;;
65463;SDS011;52063;45.110;9.870;2024-02-26T10:07:57;4.65;;;2.90;;
65463;SDS011;52063;45.110;9.870;2024-02-26T10:10:23;4.03;;;2.90;;
65463;SDS011;52063;45.110;9.870;2024-02-26T10:12:49;9.30;;;3.10;;
65463;SDS011;52063;45.110;9.870;2024-02-26T10:15:15;4.45;;;2.72;;
65463;SDS011;52063;45.110;9.870;2024-02-26T10:17:41;7.30;;;2.70;;
65463;SDS011;52063;45.110;9.870;2024-02-26T10:20:11;3.50;;;2.60;;
65463;SDS011;52063;45.110;9.870;2024-02-26T10:22:43;3.58;;;2.72;;
65463;SDS011;52063;45.110;9.870;2024-02-26T10:25:09;3.78;;;2.80;;
65463;SDS011;52063;45.110;9.870;2024-02-26T10:27:35;5.97;;;2.90;;
65463;SDS011;52063;45.110;9.870;2024-02-26T10:30:04;3.85;;;2.70;;
65463;SDS011;52063;45.110;9.870;2024-02-26T10:32:51;4.20;;;2.38;;
65463;SDS011;52063;45.110;9.870;2024-02-26T10:35:17;3.93;;;2.80;;
65463;SDS011;52063;45.110;9.870;2024-02-26T10:37:43;4.15;;;2.45;;
65463;SDS011;52063;45.110;9.870;2024-02-26T10:40:12;4.70;;;2.35;;
65463;SDS011;52063;45.110;9.870;2024-02-26T10:42:39;4.20;;;2.50;;
65463;SDS011;52063;45.110;9.870;2024-02-26T10:45:05;5.23;;;2.50;;
65463;SDS011;52063;45.110;9.870;2024-02-26T10:47:31;4.90;;;2.53;;
65463;SDS011;52063;45.110;9.870;2024-02-26T10:49:59;5.63;;;2.70;;
65463;SDS011;52063;45.110;9.870;2024-02-26T10:52:26;2.50;;;2.30;;
65463;SDS011;52063;45.110;9.870;2024-02-26T10:54:56;3.45;;;2.20;;
65463;SDS011;52063;45.110;9.870;2024-02-26T10:57:23;5.70;;;2.00;;
65463;SDS011;52063;45.110;9.870;2024-02-26T10:59:50;3.45;;;2.50;;
65463;SDS011;52063;45.110;9.870;2024-02-26T11:02:16;2.58;;;2.25;;
65463;SDS011;52063;45.110;9.870;2024-02-26T11:04:42;2.90;;;2.60;;
65463;SDS011;52063;45.110;9.870;2024-02-26T11:07:09;2.47;;;2.20;;
65463;SDS011;52063;45.110;9.870;2024-02-26T11:09:35;3.80;;;2.20;;
65463;SDS011;52063;45.110;9.870;2024-02-26T11:12:02;4.75;;;2.17;;
65463;SDS011;52063;45.110;9.870;2024-02-26T11:14:28;2.60;;;2.40;;
65463;SDS011;52063;45.110;9.870;2024-02-26T11:16:55;2.88;;;2.10;;
65463;SDS011;52063;45.110;9.870;2024-02-26T11:19:21;3.23;;;2.03;;
65463;SDS011;52063;45.110;9.870;2024-02-26T11:21:46;2.50;;;2.10;;
65463;SDS011;52063;45.110;9.870;2024-02-26T11:24:13;4.20;;;2.50;;
65463;SDS011;52063;45.110;9.870;2024-02-26T11:26:50;2.73;;;2.10;;
65463;SDS011;52063;45.110;9.870;2024-02-26T11:29:23;2.75;;;2.10;;
65463;SDS011;52063;45.110;9.870;2024-02-26T11:31:50;4.32;;;2.03;;
65463;SDS011;52063;45.110;9.870;2024-02-26T11:34:17;3.13;;;2.30;;
65463;SDS011;52063;45.110;9.870;2024-02-26T11:36:43;2.73;;;2.13;;
65463;SDS011;52063;45.110;9.870;2024-02-26T11:39:08;2.30;;;2.00;;
65463;SDS011;52063;45.110;9.870;2024-02-26T11:41:37;2.38;;;2.00;;
65463;SDS011;52063;45.110;9.870;2024-02-26T11:44:03;4.47;;;2.60;;
65463;SDS011;52063;45.110;9.870;2024-02-26T11:46:41;2.30;;;2.03;;
65463;SDS011;52063;45.110;9.870;2024-02-26T11:51:52;2.45;;;2.25;;
65463;SDS011;52063;45.110;9.870;2024-02-26T12:02:50;2.60;;;2.20;;
65463;SDS011;52063;45.110;9.870;2024-02-26T12:05:23;2.40;;;2.20;;
65463;SDS011;52063;45.110;9.870;2024-02-26T12:07:49;2.28;;;1.83;;
65463;SDS011;52063;45.110;9.870;2024-02-26T12:10:23;2.50;;;2.10;;
65463;SDS011;52063;45.110;9.870;2024-02-26T12:15:42;3.15;;;2.03;;
65463;SDS011;52063;45.110;9.870;2024-02-26T12:18:09;2.25;;;2.05;;
65463;SDS011;52063;45.110;9.870;2024-02-26T12:20:38;3.90;;;2.00;;
65463;SDS011;52063;45.110;9.870;2024-02-26T12:23:04;3.17;;;1.80;;
65463;SDS011;52063;45.110;9.870;2024-02-26T12:25:30;2.00;;;1.75;;
65463;SDS011;52063;45.110;9.870;2024-02-26T12:27:56;2.88;;;1.90;;
65463;SDS011;52063;45.110;9.870;2024-02-26T12:30:22;2.20;;;1.83;;
65463;SDS011;52063;45.110;9.870;2024-02-26T12:32:49;2.00;;;1.80;;
65463;SDS011;52063;45.110;9.870;2024-02-26T12:35:15;2.13;;;1.92;;
65463;SDS011;52063;45.110;9.870;2024-02-26T12:37:41;1.90;;;1.80;;
65463;SDS011;52063;45.110;9.870;2024-02-26T12:40:08;1.83;;;1.73;;
65463;SDS011;52063;45.110;9.870;2024-02-26T12:42:34;2.83;;;2.07;;
65463;SDS011;52063;45.110;9.870;2024-02-26T12:45:05;2.55;;;2.08;;
65463;SDS011;52063;45.110;9.870;2024-02-26T12:47:38;3.05;;;1.75;;
65463;SDS011;52063;45.110;9.870;2024-02-26T12:50:04;2.20;;;1.70;;
65463;SDS011;52063;45.110;9.870;2024-02-26T12:52:33;2.10;;;1.88;;
65463;SDS011;52063;45.110;9.870;2024-02-26T12:54:59;1.93;;;1.73;;
65463;SDS011;52063;45.110;9.870;2024-02-26T12:57:28;2.30;;;1.70;;
65463;SDS011;52063;45.110;9.870;2024-02-26T12:59:57;2.80;;;2.00;;
65463;SDS011;52063;45.110;9.870;2024-02-26T13:02:23;2.17;;;1.88;;
65463;SDS011;52063;45.110;9.870;2024-02-26T13:04:49;2.38;;;1.70;;
65463;SDS011;52063;45.110;9.870;2024-02-26T13:07:15;1.83;;;1.60;;
65463;SDS011;52063;45.110;9.870;2024-02-26T13:09:41;2.38;;;1.60;;
65463;SDS011;52063;45.110;9.870;2024-02-26T13:12:06;2.03;;;1.67;;
65463;SDS011;52063;45.110;9.870;2024-02-26T13:14:33;2.47;;;1.70;;
65463;SDS011;52063;45.110;9.870;2024-02-26T13:17:01;2.22;;;1.85;;
65463;SDS011;52063;45.110;9.870;2024-02-26T13:19:27;2.73;;;1.70;;
65463;SDS011;52063;45.110;9.870;2024-02-26T13:21:53;2.83;;;2.00;;
65463;SDS011;52063;45.110;9.870;2024-02-26T13:24:21;2.30;;;1.67;;
65463;SDS011;52063;45.110;9.870;2024-02-26T13:26:56;2.07;;;1.87;;
65463;SDS011;52063;45.110;9.870;2024-02-26T13:29:22;1.80;;;1.70;;
65463;SDS011;52063;45.110;9.870;2024-02-26T13:31:47;2.08;;;1.88;;
65463;SDS011;52063;45.110;9.870;2024-02-26T13:34:31;1.70;;;1.60;;
65463;SDS011;52063;45.110;9.870;2024-02-26T13:36:58;2.10;;;1.40;;
65463;SDS011;52063;45.110;9.870;2024-02-26T13:39:24;2.33;;;1.70;;
65463;SDS011;52063;45.110;9.870;2024-02-26T13:41:50;1.90;;;1.70;;
65463;SDS011;52063;45.110;9.870;2024-02-26T13:44:16;2.90;;;1.55;;
65463;SDS011;52063;45.110;9.870;2024-02-26T13:46:42;3.10;;;1.80;;
65463;SDS011;52063;45.110;9.870;2024-02-26T13:49:08;1.97;;;1.60;;
65463;SDS011;52063;45.110;9.870;2024-02-26T13:51:34;2.03;;;1.70;;
65463;SDS011;52063;45.110;9.870;2024-02-26T13:54:01;4.18;;;1.70;;
65463;SDS011;52063;45.110;9.870;2024-02-26T13:56:27;2.97;;;1.88;;
65463;SDS011;52063;45.110;9.870;2024-02-26T13:58:52;2.00;;;1.67;;
65463;SDS011;52063;45.110;9.870;2024-02-26T14:01:18;2.73;;;1.70;;
65463;SDS011;52063;45.110;9.870;2024-02-26T14:03:43;2.57;;;1.60;;
65463;SDS011;52063;45.110;9.870;2024-02-26T14:06:09;3.83;;;1.57;;
65463;SDS011;52063;45.110;9.870;2024-02-26T14:08:34;3.22;;;1.52;;
65463;SDS011;52063;45.110;9.870;2024-02-26T14:11:00;1.63;;;1.53;;
65463;SDS011;52063;45.110;9.870;2024-02-26T14:13:26;2.67;;;1.80;;
65463;SDS011;52063;45.110;9.870;2024-02-26T14:15:51;1.65;;;1.55;;
65463;SDS011;52063;45.110;9.870;2024-02-26T14:18:17;3.07;;;1.70;;
65463;SDS011;52063;45.110;9.870;2024-02-26T14:20:42;2.67;;;1.57;;
65463;SDS011;52063;45.110;9.870;2024-02-26T14:23:09;3.15;;;1.95;;
65463;SDS011;52063;45.110;9.870;2024-02-26T14:25:35;2.58;;;1.60;;
65463;SDS011;52063;45.110;9.870;2024-02-26T14:28:02;2.47;;;1.90;;
65463;SDS011;52063;45.110;9.870;2024-02-26T14:30:27;1.87;;;1.53;;
65463;SDS011;52063;45.110;9.870;2024-02-26T14:32:53;2.22;;;1.33;;
65463;SDS011;52063;45.110;9.870;2024-02-26T14:35:18;1.77;;;1.50;;
65463;SDS011;52063;45.110;9.870;2024-02-26T14:37:44;4.45;;;1.70;;
65463;SDS011;52063;45.110;9.870;2024-02-26T14:40:14;2.07;;;1.40;;
65463;SDS011;52063;45.110;9.870;2024-02-26T14:42:40;1.50;;;1.40;;
65463;SDS011;52063;45.110;9.870;2024-02-26T14:45:06;2.45;;;1.60;;
65463;SDS011;52063;45.110;9.870;2024-02-26T14:47:34;2.88;;;1.98;;
65463;SDS011;52063;45.110;9.870;2024-02-26T14:50:01;3.10;;;1.63;;
65463;SDS011;52063;45.110;9.870;2024-02-26T14:52:27;1.60;;;1.50;;
65463;SDS011;52063;45.110;9.870;2024-02-26T14:54:54;4.50;;;1.60;;
65463;SDS011;52063;45.110;9.870;2024-02-26T14:57:20;2.38;;;1.50;;